Time;durP1;ratioP1;P1;durP2;ratioP2;P2;SDS_P1;SDS_P2;PMS_P1;PMS_P2;Temp;Humidity;BMP_temperature;BMP_pressure;BME280_temperature;BME280_humidity;BME280_pressure;Samples;Min_cycle;Max_cycle;Signal;HPM_P1;HPM_P2
2023/04/04 00:02:42;;;;;;;3.83;2.30;;;;;;;;;;5015524;28;20541;-75
2023/04/04 00:05:46;;;;;;;4.40;2.33;;;;;;;;;;5014455;28;20541;-74
2023/04/04 00:08:50;;;;;;;4.40;2.33;;;;;;;;;;5015147;28;20878;-74
2023/04/04 00:11:55;;;;;;;3.93;2.17;;;;;;;;;;5014239;28;20616;-74
2023/04/04 00:14:59;;;;;;;4.37;2.00;;;;;;;;;;5015248;28;20549;-74
2023/04/04 00:18:03;;;;;;;2.90;2.37;;;;;;;;;;5014974;28;20556;-74
2023/04/04 00:21:07;;;;;;;2.90;2.27;;;;;;;;;;5014812;28;20628;-74
2023/04/04 00:24:11;;;;;;;3.60;2.10;;;;;;;;;;5014833;28;20599;-74
2023/04/04 00:27:15;;;;;;;4.63;2.40;;;;;;;;;;5015079;28;20537;-74
2023/04/04 00:30:19;;;;;;;3.30;2.00;;;;;;;;;;5013797;28;20540;-74
2023/04/04 00:33:23;;;;;;;3.43;2.20;;;;;;;;;;5013909;28;21082;-74
2023/04/04 00:36:27;;;;;;;3.07;2.37;;;;;;;;;;5014710;28;20592;-74
2023/04/04 00:39:33;;;;;;;2.77;2.20;;;;;;;;;;5014853;28;21089;-75
2023/04/04 00:42:37;;;;;;;2.90;2.20;;;;;;;;;;5013671;28;20624;-75
2023/04/04 00:45:42;;;;;;;5.03;2.60;;;;;;;;;;5014752;28;21073;-75
2023/04/04 00:48:47;;;;;;;2.60;2.40;;;;;;;;;;5013891;28;20537;-74
2023/04/04 00:51:51;;;;;;;3.47;2.13;;;;;;;;;;5013749;28;20620;-74
2023/04/04 00:54:56;;;;;;;3.77;2.20;;;;;;;;;;5014016;28;20544;-74
2023/04/04 00:57:59;;;;;;;5.77;2.43;;;;;;;;;;5013423;28;20946;-74
2023/04/04 01:01:04;;;;;;;5.27;2.53;;;;;;;;;;5013614;28;20619;-75
2023/04/04 01:04:08;;;;;;;5.77;2.47;;;;;;;;;;5014426;28;20552;-75
2023/04/04 01:07:13;;;;;;;6.10;2.63;;;;;;;;;;5014031;28;20592;-75
2023/04/04 01:10:17;;;;;;;4.60;2.30;;;;;;;;;;5013098;28;20595;-75
2023/04/04 01:13:21;;;;;;;3.50;2.13;;;;;;;;;;5002216;28;20875;-75
2023/04/04 01:16:27;;;;;;;4.07;2.40;;;;;;;;;;5013596;28;20592;-75
2023/04/04 01:19:36;;;;;;;2.97;2.30;;;;;;;;;;5013125;28;20894;-75
2023/04/04 01:22:49;;;;;;;4.33;2.47;;;;;;;;;;5013021;28;20592;-75
2023/04/04 01:26:02;;;;;;;4.57;2.40;;;;;;;;;;5013123;28;21096;-75
2023/04/04 01:29:07;;;;;;;4.60;2.03;;;;;;;;;;5012876;28;20604;-75
2023/04/04 01:32:19;;;;;;;4.10;2.13;;;;;;;;;;5012834;28;20627;-75
2023/04/04 01:35:34;;;;;;;2.77;2.10;;;;;;;;;;5012667;28;20957;-75
2023/04/04 01:39:03;;;;;;;2.63;2.00;;;;;;;;;;5012779;28;20600;-75
2023/04/04 01:42:08;;;;;;;4.63;2.20;;;;;;;;;;5012473;28;20600;-75
2023/04/04 01:45:13;;;;;;;3.17;2.43;;;;;;;;;;5012687;28;20537;-75
2023/04/04 01:48:17;;;;;;;5.10;2.60;;;;;;;;;;4990643;28;20536;-75
2023/04/04 01:51:26;;;;;;;4.77;2.27;;;;;;;;;;4990845;28;20624;-75
2023/04/04 01:54:32;;;;;;;4.03;2.13;;;;;;;;;;5012850;28;20537;-75
2023/04/04 01:57:37;;;;;;;5.73;2.27;;;;;;;;;;5012777;28;20596;-75
2023/04/04 02:00:40;;;;;;;4.33;2.57;;;;;;;;;;5012738;28;20619;-75
2023/04/04 02:03:46;;;;;;;5.80;2.33;;;;;;;;;;4990367;28;20544;-75
2023/04/04 02:06:51;;;;;;;7.17;2.10;;;;;;;;;;5012720;28;20540;-75
2023/04/04 02:09:56;;;;;;;6.60;2.60;;;;;;;;;;5012641;28;20537;-75
2023/04/04 02:13:00;;;;;;;3.00;2.13;;;;;;;;;;5001443;28;20879;-75
2023/04/04 02:16:05;;;;;;;2.87;2.43;;;;;;;;;;5012506;28;20647;-75
2023/04/04 02:19:09;;;;;;;3.60;2.57;;;;;;;;;;5001276;28;20603;-75
2023/04/04 02:22:14;;;;;;;3.20;2.37;;;;;;;;;;5012774;28;20627;-75
2023/04/04 02:25:19;;;;;;;5.00;2.30;;;;;;;;;;5012508;28;20623;-75
2023/04/04 02:28:23;;;;;;;4.90;2.70;;;;;;;;;;5012483;28;20588;-75
2023/04/04 02:31:27;;;;;;;2.93;2.00;;;;;;;;;;5013495;28;20628;-75
2023/04/04 02:34:32;;;;;;;3.90;2.00;;;;;;;;;;5012066;28;20608;-75
2023/04/04 02:37:37;;;;;;;2.80;2.40;;;;;;;;;;5012361;28;20601;-75
2023/04/04 02:40:45;;;;;;;5.47;2.23;;;;;;;;;;5012045;28;20616;-75
2023/04/04 02:43:49;;;;;;;3.17;2.27;;;;;;;;;;5012387;28;20545;-75
2023/04/04 02:46:53;;;;;;;4.37;2.30;;;;;;;;;;5012358;28;20540;-75
2023/04/04 02:50:00;;;;;;;3.17;2.30;;;;;;;;;;5012054;28;20549;-75
2023/04/04 02:53:04;;;;;;;2.27;1.97;;;;;;;;;;5012249;28;20591;-75
2023/04/04 02:56:11;;;;;;;5.30;2.70;;;;;;;;;;5015596;28;20994;-75
2023/04/04 02:59:16;;;;;;;3.67;2.20;;;;;;;;;;5016506;28;21081;-75
2023/04/04 03:02:23;;;;;;;2.83;1.90;;;;;;;;;;5015594;28;20623;-75
2023/04/04 03:05:29;;;;;;;3.47;2.13;;;;;;;;;;5004375;28;20552;-75
2023/04/04 03:08:34;;;;;;;2.53;2.03;;;;;;;;;;5015817;28;20536;-75
2023/04/04 03:11:39;;;;;;;2.70;2.20;;;;;;;;;;5004067;28;20632;-75
2023/04/04 03:14:43;;;;;;;5.23;2.50;;;;;;;;;;5004119;28;21159;-75
2023/04/04 03:17:47;;;;;;;3.70;2.50;;;;;;;;;;5015593;28;20591;-74
2023/04/04 03:20:51;;;;;;;5.87;2.67;;;;;;;;;;5016003;28;20628;-75
2023/04/04 03:23:56;;;;;;;2.73;2.40;;;;;;;;;;5016238;28;20537;-75
2023/04/04 03:27:02;;;;;;;3.80;2.17;;;;;;;;;;5015148;28;20544;-75
2023/04/04 03:30:07;;;;;;;5.03;2.93;;;;;;;;;;5004107;28;20596;-75
2023/04/04 03:33:11;;;;;;;3.17;2.03;;;;;;;;;;5003923;28;20902;-75
2023/04/04 03:36:16;;;;;;;2.87;1.90;;;;;;;;;;5014815;28;20616;-74
2023/04/04 03:39:20;;;;;;;4.60;2.30;;;;;;;;;;5015006;28;20548;-75
2023/04/04 03:42:25;;;;;;;3.40;2.40;;;;;;;;;;5015869;28;20624;-75
2023/04/04 03:45:33;;;;;;;3.17;2.30;;;;;;;;;;5003903;28;21065;-75
2023/04/04 03:48:37;;;;;;;5.47;2.23;;;;;;;;;;5003649;28;20548;-75
2023/04/04 03:51:44;;;;;;;3.13;2.10;;;;;;;;;;5014632;28;20612;-75
2023/04/04 03:54:48;;;;;;;3.77;2.27;;;;;;;;;;5014908;28;20882;-75
2023/04/04 03:57:52;;;;;;;4.03;2.50;;;;;;;;;;5015579;28;20588;-75
2023/04/04 04:00:57;;;;;;;3.73;1.90;;;;;;;;;;5014752;28;20616;-75
2023/04/04 04:04:05;;;;;;;4.20;2.13;;;;;;;;;;5014830;28;20566;-75
2023/04/04 04:07:09;;;;;;;3.27;2.10;;;;;;;;;;5013777;28;21080;-75
2023/04/04 04:10:14;;;;;;;4.70;2.60;;;;;;;;;;5014540;28;20556;-75
2023/04/04 04:13:18;;;;;;;3.50;2.17;;;;;;;;;;5015338;28;20941;-75
2023/04/04 04:16:22;;;;;;;4.13;2.10;;;;;;;;;;5014406;28;21073;-75
2023/04/04 04:19:27;;;;;;;4.17;1.97;;;;;;;;;;5015133;28;20549;-75
2023/04/04 04:22:32;;;;;;;3.03;2.37;;;;;;;;;;5002844;28;20616;-75
2023/04/04 04:25:36;;;;;;;5.07;2.43;;;;;;;;;;5014137;28;20553;-75
2023/04/04 04:28:50;;;;;;;3.47;2.03;;;;;;;;;;5014325;28;20537;-75
2023/04/04 04:32:00;;;;;;;2.93;1.90;;;;;;;;;;5003129;28;20961;-74
2023/04/04 04:35:08;;;;;;;5.67;2.20;;;;;;;;;;5002572;28;20604;-75
2023/04/04 04:38:14;;;;;;;3.47;2.03;;;;;;;;;;5014033;28;20592;-75
2023/04/04 04:41:18;;;;;;;4.37;1.83;;;;;;;;;;5013806;28;20615;-74
2023/04/04 04:44:26;;;;;;;5.60;2.17;;;;;;;;;;5013643;28;20592;-74
2023/04/04 04:47:33;;;;;;;5.00;2.10;;;;;;;;;;5013605;28;20600;-74
2023/04/04 04:50:42;;;;;;;5.43;2.30;;;;;;;;;;5013469;28;20632;-74
2023/04/04 04:53:48;;;;;;;3.73;2.27;;;;;;;;;;5002735;28;20541;-75
2023/04/04 04:56:53;;;;;;;3.77;1.87;;;;;;;;;;5002137;28;20643;-74
2023/04/04 05:00:00;;;;;;;2.77;2.10;;;;;;;;;;5013722;28;20541;-74
2023/04/04 05:03:07;;;;;;;5.33;2.57;;;;;;;;;;5013666;28;20541;-74
2023/04/04 05:06:16;;;;;;;4.43;2.63;;;;;;;;;;5013424;28;20891;-74
2023/04/04 05:09:22;;;;;;;5.07;2.70;;;;;;;;;;5002475;28;20875;-74
2023/04/04 05:12:26;;;;;;;4.47;2.40;;;;;;;;;;5013422;28;20628;-74
2023/04/04 05:15:32;;;;;;;4.17;2.60;;;;;;;;;;5001995;28;20545;-74
2023/04/04 05:18:36;;;;;;;4.97;2.37;;;;;;;;;;5012186;28;20600;-74
2023/04/04 05:21:44;;;;;;;3.73;2.50;;;;;;;;;;5013306;28;20624;-74
2023/04/04 05:24:53;;;;;;;3.43;2.40;;;;;;;;;;5012999;28;20533;-74
2023/04/04 05:28:02;;;;;;;3.80;2.07;;;;;;;;;;5012998;28;20604;-75
2023/04/04 05:31:08;;;;;;;2.40;2.20;;;;;;;;;;5001932;28;20624;-74
2023/04/04 05:34:13;;;;;;;3.63;2.30;;;;;;;;;;5012782;28;20595;-74
2023/04/04 05:37:17;;;;;;;3.77;2.10;;;;;;;;;;5001717;28;20605;-74
2023/04/04 05:40:25;;;;;;;8.10;2.30;;;;;;;;;;5012780;28;20552;-74
2023/04/04 05:43:40;;;;;;;4.50;2.43;;;;;;;;;;5002953;28;20541;-75
2023/04/04 05:46:50;;;;;;;5.07;2.47;;;;;;;;;;5012931;28;20541;-74
2023/04/04 05:49:56;;;;;;;4.50;2.20;;;;;;;;;;5012506;28;20544;-74
2023/04/04 05:53:01;;;;;;;5.27;2.80;;;;;;;;;;5012891;28;20549;-74
2023/04/04 05:56:05;;;;;;;4.07;2.73;;;;;;;;;;5001327;28;20899;-74
2023/04/04 05:59:11;;;;;;;4.27;2.63;;;;;;;;;;5012815;28;20530;-74
2023/04/04 06:02:28;;;;;;;5.10;2.53;;;;;;;;;;5012452;28;20624;-74
2023/04/04 06:05:37;;;;;;;4.97;2.93;;;;;;;;;;5012533;28;20561;-74
2023/04/04 06:08:42;;;;;;;7.07;2.70;;;;;;;;;;5001358;28;20529;-74
2023/04/04 06:11:46;;;;;;;5.70;2.90;;;;;;;;;;5013065;28;20627;-74
2023/04/04 06:14:50;;;;;;;5.90;2.60;;;;;;;;;;5012383;28;20895;-74
2023/04/04 06:17:58;;;;;;;4.93;2.37;;;;;;;;;;5012568;28;20596;-74
2023/04/04 06:21:02;;;;;;;4.03;2.67;;;;;;;;;;5012246;28;20632;-74
2023/04/04 06:24:07;;;;;;;3.93;2.03;;;;;;;;;;5012523;28;20545;-74
2023/04/04 06:27:10;;;;;;;4.40;2.23;;;;;;;;;;5012231;28;20545;-75
2023/04/04 06:30:16;;;;;;;3.30;1.90;;;;;;;;;;5015649;28;20545;-74
2023/04/04 06:33:22;;;;;;;4.10;2.47;;;;;;;;;;4994027;28;20540;-74
2023/04/04 06:36:26;;;;;;;4.07;2.30;;;;;;;;;;5016217;28;20595;-74
2023/04/04 06:39:33;;;;;;;6.23;2.20;;;;;;;;;;5016370;28;20541;-74
2023/04/04 06:42:50;;;;;;;5.13;1.90;;;;;;;;;;5005813;28;20600;-74
2023/04/04 06:45:55;;;;;;;4.77;2.20;;;;;;;;;;5016196;28;20541;-74
2023/04/04 06:48:59;;;;;;;3.13;2.10;;;;;;;;;;5016004;28;21060;-74
2023/04/04 06:52:04;;;;;;;4.33;2.40;;;;;;;;;;5015579;28;20619;-74
2023/04/04 06:55:08;;;;;;;5.00;2.13;;;;;;;;;;5015890;28;20891;-74
2023/04/04 06:58:13;;;;;;;4.83;2.10;;;;;;;;;;5015505;28;20584;-74
2023/04/04 07:01:17;;;;;;;4.27;2.53;;;;;;;;;;5004556;28;20616;-74
2023/04/04 07:04:21;;;;;;;5.40;2.50;;;;;;;;;;4993339;28;20536;-74
2023/04/04 07:07:25;;;;;;;5.17;2.27;;;;;;;;;;5016459;28;20533;-74
2023/04/04 07:10:29;;;;;;;4.00;2.10;;;;;;;;;;5016269;28;20553;-75
2023/04/04 07:13:34;;;;;;;3.73;2.10;;;;;;;;;;5015591;28;20536;-75
2023/04/04 07:16:38;;;;;;;4.27;2.13;;;;;;;;;;5004043;28;20536;-76
2023/04/04 07:19:42;;;;;;;3.70;2.13;;;;;;;;;;5016208;28;20545;-75
2023/04/04 07:22:47;;;;;;;5.47;2.70;;;;;;;;;;4992953;28;20592;-75
2023/04/04 07:25:52;;;;;;;3.60;2.27;;;;;;;;;;5016190;28;21100;-75
2023/04/04 07:28:56;;;;;;;3.40;2.20;;;;;;;;;;5015269;28;20532;-75
2023/04/04 07:32:00;;;;;;;5.33;2.73;;;;;;;;;;5015899;28;20624;-75
2023/04/04 07:35:05;;;;;;;3.83;2.20;;;;;;;;;;5003540;28;20957;-75
2023/04/04 07:38:09;;;;;;;3.33;2.30;;;;;;;;;;5015845;28;20595;-75
2023/04/04 07:41:14;;;;;;;7.20;2.73;;;;;;;;;;5014688;28;20628;-74
2023/04/04 07:44:18;;;;;;;3.63;2.37;;;;;;;;;;5003738;28;20548;-75
2023/04/04 07:47:22;;;;;;;3.53;2.60;;;;;;;;;;5014639;28;20537;-75
2023/04/04 07:50:26;;;;;;;4.50;2.70;;;;;;;;;;5015485;28;21120;-75
2023/04/04 07:53:31;;;;;;;3.77;2.20;;;;;;;;;;4992605;28;20544;-74
2023/04/04 07:56:35;;;;;;;3.17;2.40;;;;;;;;;;5003262;28;21149;-73
2023/04/04 07:59:40;;;;;;;4.50;2.67;;;;;;;;;;5015194;28;20592;-74
2023/04/04 08:02:44;;;;;;;4.40;2.37;;;;;;;;;;5015133;28;20201;-74
2023/04/04 08:05:48;;;;;;;4.23;2.40;;;;;;;;;;5003026;28;20205;-74
2023/04/04 08:08:53;;;;;;;4.63;2.57;;;;;;;;;;5015645;28;20551;-74
2023/04/04 08:11:57;;;;;;;5.63;2.80;;;;;;;;;;5014909;28;20217;-74
2023/04/04 08:15:01;;;;;;;5.40;2.43;;;;;;;;;;5014404;28;20189;-74
2023/04/04 08:18:05;;;;;;;4.70;2.60;;;;;;;;;;5014314;28;20217;-74
2023/04/04 08:21:09;;;;;;;3.40;2.37;;;;;;;;;;5014144;28;20216;-74
2023/04/04 08:24:13;;;;;;;2.83;2.20;;;;;;;;;;5015154;28;20189;-74
2023/04/04 08:27:18;;;;;;;3.57;2.50;;;;;;;;;;5003122;28;20186;-73
2023/04/04 08:30:22;;;;;;;4.00;2.30;;;;;;;;;;5014261;28;20516;-74
2023/04/04 08:33:26;;;;;;;4.10;2.37;;;;;;;;;;5014872;28;20210;-74
2023/04/04 08:36:30;;;;;;;5.43;2.57;;;;;;;;;;5014832;28;20545;-74
2023/04/04 08:39:34;;;;;;;4.00;2.53;;;;;;;;;;5014636;28;20596;-73
2023/04/04 08:42:40;;;;;;;4.63;2.60;;;;;;;;;;5014497;28;20620;-74
2023/04/04 08:45:45;;;;;;;3.67;2.60;;;;;;;;;;5015037;28;21074;-74
2023/04/04 08:48:51;;;;;;;3.17;2.40;;;;;;;;;;5014550;28;20544;-73
2023/04/04 08:51:56;;;;;;;3.60;2.23;;;;;;;;;;5013723;28;20640;-74
2023/04/04 08:55:03;;;;;;;18.90;9.47;;;;;;;;;;5014387;28;20537;-73
2023/04/04 08:58:08;;;;;;;4.97;2.63;;;;;;;;;;5014203;28;20648;-74
2023/04/04 09:01:12;;;;;;;5.40;2.83;;;;;;;;;;5014026;28;20685;-74
2023/04/04 09:04:19;;;;;;;3.27;2.37;;;;;;;;;;5013671;28;20548;-74
2023/04/04 09:07:24;;;;;;;5.07;2.67;;;;;;;;;;5013996;28;20665;-74
2023/04/04 09:10:28;;;;;;;3.60;2.33;;;;;;;;;;5014675;28;20189;-74
2023/04/04 09:13:32;;;;;;;4.43;2.60;;;;;;;;;;5014680;28;20185;-73
2023/04/04 09:16:37;;;;;;;3.80;2.40;;;;;;;;;;5014668;28;20190;-74
2023/04/04 09:19:41;;;;;;;3.27;2.47;;;;;;;;;;5013968;28;20217;-74
2023/04/04 09:22:45;;;;;;;5.03;2.60;;;;;;;;;;5013493;28;20185;-74
2023/04/04 09:25:51;;;;;;;2.93;2.37;;;;;;;;;;5013797;28;20219;-73
2023/04/04 09:28:55;;;;;;;4.57;2.63;;;;;;;;;;5013505;28;20177;-74
2023/04/04 09:32:00;;;;;;;3.43;2.13;;;;;;;;;;5014215;28;20547;-73
2023/04/04 09:35:05;;;;;;;3.97;2.40;;;;;;;;;;5012760;28;20209;-74
2023/04/04 09:38:09;;;;;;;5.00;2.60;;;;;;;;;;5013517;28;20662;-74
2023/04/04 09:41:14;;;;;;;3.87;2.53;;;;;;;;;;5012658;28;20225;-73
2023/04/04 09:44:19;;;;;;;4.33;2.60;;;;;;;;;;5013504;28;20639;-74
2023/04/04 09:47:26;;;;;;;3.30;2.33;;;;;;;;;;5014059;28;20185;-74
2023/04/04 09:50:32;;;;;;;5.90;2.30;;;;;;;;;;5012685;28;20197;-74
2023/04/04 09:53:38;;;;;;;10.47;3.17;;;;;;;;;;5012555;28;20639;-74
2023/04/04 09:56:43;;;;;;;4.23;2.10;;;;;;;;;;5013609;28;20186;-74
2023/04/04 09:59:48;;;;;;;6.33;2.20;;;;;;;;;;5012837;28;20209;-74
2023/04/04 10:02:52;;;;;;;2.40;2.10;;;;;;;;;;5013372;28;20185;-74
2023/04/04 10:06:03;;;;;;;5.77;2.60;;;;;;;;;;5012721;28;20193;-73
2023/04/04 10:09:08;;;;;;;3.53;2.27;;;;;;;;;;5012430;28;20546;-73
2023/04/04 10:12:13;;;;;;;4.10;2.30;;;;;;;;;;5012435;28;20220;-73
2023/04/04 10:15:18;;;;;;;6.40;2.97;;;;;;;;;;5013645;28;20190;-73
2023/04/04 10:18:24;;;;;;;4.90;2.47;;;;;;;;;;5013300;28;20185;-74
2023/04/04 10:21:28;;;;;;;7.47;3.17;;;;;;;;;;5013049;28;20221;-74
2023/04/04 10:24:33;;;;;;;3.67;2.30;;;;;;;;;;5012231;28;20186;-74
2023/04/04 10:27:37;;;;;;;3.80;2.30;;;;;;;;;;5013056;28;20190;-74
2023/04/04 10:30:47;;;;;;;7.07;2.77;;;;;;;;;;5012426;28;20568;-74
2023/04/04 10:33:58;;;;;;;3.83;2.40;;;;;;;;;;5013307;28;20178;-74
2023/04/04 10:37:07;;;;;;;4.73;2.80;;;;;;;;;;5012141;28;20193;-75
2023/04/04 10:40:16;;;;;;;5.17;2.77;;;;;;;;;;5012658;28;20213;-74
2023/04/04 10:43:25;;;;;;;4.83;2.27;;;;;;;;;;5012501;28;20532;-74
2023/04/04 10:46:32;;;;;;;4.83;3.03;;;;;;;;;;5012713;28;20197;-75
2023/04/04 10:49:37;;;;;;;4.33;2.30;;;;;;;;;;5012701;28;20177;-74
2023/04/04 10:52:43;;;;;;;3.70;2.50;;;;;;;;;;5012965;28;20178;-74
2023/04/04 10:55:47;;;;;;;3.63;2.53;;;;;;;;;;5012777;28;20638;-74
2023/04/04 10:59:11;;;;;;;3.60;2.63;;;;;;;;;;5012915;28;20213;-74
2023/04/04 11:02:17;;;;;;;3.33;2.40;;;;;;;;;;5012631;28;20233;-74
2023/04/04 11:05:31;;;;;;;5.13;2.43;;;;;;;;;;5012552;28;20547;-74
2023/04/04 11:08:38;;;;;;;4.90;2.33;;;;;;;;;;5012051;28;20190;-75
2023/04/04 11:12:22;;;;;;;3.60;2.10;;;;;;;;;;5011693;28;20547;-74
2023/04/04 11:15:26;;;;;;;4.50;2.30;;;;;;;;;;4990790;28;20201;-74
2023/04/04 11:18:30;;;;;;;4.40;2.90;;;;;;;;;;5015426;28;20190;-74
2023/04/04 11:21:34;;;;;;;4.53;3.20;;;;;;;;;;5015972;28;20221;-75
2023/04/04 11:24:41;;;;;;;5.20;2.63;;;;;;;;;;5016154;28;20638;-74
2023/04/04 11:27:47;;;;;;;3.17;2.13;;;;;;;;;;5015118;28;20527;-74
2023/04/04 11:31:17;;;;;;;5.03;2.70;;;;;;;;;;5016116;28;20218;-74
2023/04/04 11:34:31;;;;;;;2.83;2.33;;;;;;;;;;5016492;28;20201;-75
2023/04/04 11:38:03;;;;;;;6.40;2.57;;;;;;;;;;5016175;28;20190;-75
2023/04/04 11:41:09;;;;;;;3.70;2.23;;;;;;;;;;5015860;28;20218;-75
2023/04/04 11:44:16;;;;;;;3.73;2.40;;;;;;;;;;5015346;28;20186;-75
2023/04/04 11:47:24;;;;;;;4.33;2.30;;;;;;;;;;5015760;28;20178;-75
2023/04/04 11:50:34;;;;;;;3.23;2.17;;;;;;;;;;5003714;28;20532;-75
2023/04/04 11:53:41;;;;;;;3.20;2.20;;;;;;;;;;5015230;28;20194;-75
2023/04/04 11:56:45;;;;;;;4.17;2.50;;;;;;;;;;5014955;28;20181;-75
2023/04/04 11:59:50;;;;;;;3.10;2.50;;;;;;;;;;5015074;28;20221;-75
2023/04/04 12:02:56;;;;;;;11.43;2.73;;;;;;;;;;5015301;28;20350;-75
2023/04/04 12:06:00;;;;;;;2.57;2.17;;;;;;;;;;5004114;28;20181;-75
2023/04/04 12:09:05;;;;;;;4.60;2.60;;;;;;;;;;5014517;28;20181;-74
2023/04/04 12:12:15;;;;;;;3.40;2.50;;;;;;;;;;5012492;28;20221;-74
2023/04/04 12:15:19;;;;;;;3.70;2.40;;;;;;;;;;5014146;28;20194;-74
2023/04/04 12:18:25;;;;;;;4.53;2.30;;;;;;;;;;5014837;28;20186;-74
2023/04/04 12:21:32;;;;;;;3.90;2.20;;;;;;;;;;5014961;28;20209;-74
2023/04/04 12:24:36;;;;;;;3.43;2.20;;;;;;;;;;5014737;28;20524;-75
2023/04/04 12:27:40;;;;;;;6.90;2.27;;;;;;;;;;5014063;28;20190;-75
2023/04/04 12:30:45;;;;;;;4.80;2.73;;;;;;;;;;5014441;28;20213;-75
2023/04/04 12:33:50;;;;;;;4.73;2.23;;;;;;;;;;5015061;28;20638;-75
2023/04/04 12:36:56;;;;;;;4.17;2.53;;;;;;;;;;5014182;28;20186;-75
2023/04/04 12:40:01;;;;;;;3.33;2.40;;;;;;;;;;4985380;28;20234;-75
2023/04/04 12:43:08;;;;;;;4.33;2.57;;;;;;;;;;4985621;28;20532;-75
2023/04/04 12:46:12;;;;;;;3.63;2.33;;;;;;;;;;4973783;28;20187;-75
2023/04/04 12:49:21;;;;;;;3.80;2.07;;;;;;;;;;4985121;28;20635;-74
2023/04/04 12:52:31;;;;;;;32.90;4.60;;;;;;;;;;4985555;28;20218;-74
2023/04/04 12:55:34;;;;;;;5.83;2.40;;;;;;;;;;4975430;28;20187;-75
2023/04/04 12:58:39;;;;;;;3.47;2.10;;;;;;;;;;4985676;28;20183;-74
2023/04/04 13:01:43;;;;;;;13.13;3.23;;;;;;;;;;4985627;28;20218;-74
2023/04/04 13:04:54;;;;;;;2.63;2.20;;;;;;;;;;4985428;28;20202;-74
2023/04/04 13:08:11;;;;;;;3.70;2.37;;;;;;;;;;4975363;28;20199;-75
2023/04/04 13:11:15;;;;;;;5.80;2.30;;;;;;;;;;4975038;28;20226;-74
2023/04/04 13:14:20;;;;;;;5.20;2.63;;;;;;;;;;4975277;28;20652;-74
2023/04/04 13:17:24;;;;;;;7.00;2.60;;;;;;;;;;4985572;28;20525;-74
2023/04/04 13:20:29;;;;;;;3.60;2.20;;;;;;;;;;4974026;28;20206;-75
2023/04/04 13:23:36;;;;;;;5.63;2.50;;;;;;;;;;4974803;28;20530;-74
2023/04/04 13:26:40;;;;;;;4.30;2.33;;;;;;;;;;4973924;28;20183;-74
2023/04/04 13:29:44;;;;;;;2.80;1.90;;;;;;;;;;4974963;28;20199;-74
2023/04/04 13:32:48;;;;;;;7.17;3.17;;;;;;;;;;4984965;28;20203;-75
2023/04/04 13:35:52;;;;;;;4.50;2.40;;;;;;;;;;4984899;28;20206;-75
2023/04/04 13:38:57;;;;;;;2.80;2.07;;;;;;;;;;4984456;28;20179;-75
2023/04/04 13:42:02;;;;;;;3.03;2.17;;;;;;;;;;4973601;28;20214;-74
2023/04/04 13:45:07;;;;;;;3.17;2.40;;;;;;;;;;4974776;28;20187;-74
2023/04/04 13:48:12;;;;;;;5.00;2.60;;;;;;;;;;4974775;28;20648;-74
2023/04/04 13:51:15;;;;;;;4.00;2.53;;;;;;;;;;4974029;28;20568;-74
2023/04/04 13:54:20;;;;;;;4.00;2.27;;;;;;;;;;4985465;28;20179;-74
2023/04/04 13:57:25;;;;;;;6.63;2.20;;;;;;;;;;4974806;28;20644;-75
2023/04/04 14:00:30;;;;;;;3.90;2.60;;;;;;;;;;4985134;28;20215;-75
2023/04/04 14:03:35;;;;;;;3.37;2.53;;;;;;;;;;4984833;28;20198;-76
2023/04/04 14:06:39;;;;;;;4.53;2.53;;;;;;;;;;4984917;28;20651;-75
2023/04/04 14:09:44;;;;;;;3.77;2.57;;;;;;;;;;4984537;28;20674;-76
2023/04/04 14:12:48;;;;;;;5.07;3.00;;;;;;;;;;4984837;28;20191;-75
2023/04/04 14:15:52;;;;;;;3.10;2.17;;;;;;;;;;4974424;28;20186;-76
2023/04/04 14:18:57;;;;;;;4.47;2.50;;;;;;;;;;4984720;28;20640;-76
2023/04/04 14:22:01;;;;;;;4.37;2.40;;;;;;;;;;4984677;28;20214;-75
2023/04/04 14:25:06;;;;;;;3.80;2.40;;;;;;;;;;4974353;28;20195;-76
2023/04/04 14:28:10;;;;;;;4.83;2.70;;;;;;;;;;4973512;28;20191;-76
2023/04/04 14:31:14;;;;;;;5.57;2.60;;;;;;;;;;4973155;28;20218;-75
2023/04/04 14:34:18;;;;;;;5.60;2.30;;;;;;;;;;4973962;28;20198;-76
2023/04/04 14:37:22;;;;;;;3.17;2.00;;;;;;;;;;4984356;28;20195;-75
2023/04/04 14:40:27;;;;;;;5.53;2.20;;;;;;;;;;4973966;28;20698;-75
2023/04/04 14:43:31;;;;;;;4.27;2.73;;;;;;;;;;4974190;28;20642;-75
2023/04/04 14:46:35;;;;;;;4.20;2.47;;;;;;;;;;4974176;28;20183;-76
2023/04/04 14:49:41;;;;;;;7.13;2.33;;;;;;;;;;4973817;28;20548;-76
2023/04/04 14:52:51;;;;;;;3.30;2.10;;;;;;;;;;4988253;28;20206;-77
2023/04/04 14:55:55;;;;;;;3.60;2.27;;;;;;;;;;4976990;28;20191;-76
2023/04/04 14:59:00;;;;;;;3.70;2.13;;;;;;;;;;4977699;28;20191;-76
2023/04/04 15:02:05;;;;;;;4.67;2.27;;;;;;;;;;4987911;28;20230;-75
2023/04/04 15:05:09;;;;;;;3.77;2.10;;;;;;;;;;4976474;28;20548;-76
2023/04/04 15:08:13;;;;;;;3.90;2.33;;;;;;;;;;4977469;28;20544;-75
2023/04/04 15:11:17;;;;;;;2.93;2.43;;;;;;;;;;4977165;28;20231;-76
2023/04/04 15:14:22;;;;;;;6.90;3.70;;;;;;;;;;4987671;28;20187;-77
2023/04/04 15:17:26;;;;;;;4.67;3.10;;;;;;;;;;4977465;28;20183;-75
2023/04/04 15:20:30;;;;;;;4.60;2.80;;;;;;;;;;4976211;28;20234;-75
2023/04/04 15:23:34;;;;;;;4.73;2.67;;;;;;;;;;4987549;28;20179;-75
2023/04/04 15:26:38;;;;;;;4.70;2.60;;;;;;;;;;4987389;28;20195;-76
2023/04/04 15:29:43;;;;;;;4.40;3.00;;;;;;;;;;4976285;28;20191;-77
2023/04/04 15:32:48;;;;;;;3.17;2.03;;;;;;;;;;4976686;28;20207;-76
2023/04/04 15:35:52;;;;;;;6.83;2.50;;;;;;;;;;4987758;28;20214;-76
2023/04/04 15:38:56;;;;;;;3.57;2.80;;;;;;;;;;4976134;28;20593;-76
2023/04/04 15:42:00;;;;;;;2.50;2.10;;;;;;;;;;4986838;28;20238;-76
2023/04/04 15:45:05;;;;;;;7.13;3.07;;;;;;;;;;4977010;28;20186;-77
2023/04/04 15:48:09;;;;;;;5.43;3.10;;;;;;;;;;4965245;28;20191;-76
2023/04/04 15:51:13;;;;;;;5.87;2.60;;;;;;;;;;4987370;28;20219;-76
2023/04/04 15:54:17;;;;;;;3.33;2.40;;;;;;;;;;4976620;28;20187;-77
2023/04/04 15:57:21;;;;;;;3.50;2.27;;;;;;;;;;4987027;28;20183;-76
2023/04/04 16:00:27;;;;;;;2.73;2.17;;;;;;;;;;4975854;28;20211;-77
2023/04/04 16:03:32;;;;;;;3.93;2.57;;;;;;;;;;4976129;28;20186;-75
2023/04/04 16:06:36;;;;;;;5.80;3.63;;;;;;;;;;4976504;28;20182;-75
2023/04/04 16:09:40;;;;;;;5.00;3.80;;;;;;;;;;4976430;28;20524;-76
2023/04/04 16:12:44;;;;;;;11.77;3.50;;;;;;;;;;4976314;28;20525;-76
2023/04/04 16:15:48;;;;;;;2.63;2.23;;;;;;;;;;4986429;28;20206;-75
2023/04/04 16:18:52;;;;;;;6.03;3.60;;;;;;;;;;4976189;28;20191;-76
2023/04/04 16:21:57;;;;;;;4.60;2.53;;;;;;;;;;4975195;28;20699;-77
2023/04/04 16:25:01;;;;;;;3.30;2.30;;;;;;;;;;4986561;28;20191;-76
2023/04/04 16:28:05;;;;;;;4.17;2.90;;;;;;;;;;4986479;28;20632;-75
2023/04/04 16:31:09;;;;;;;4.33;2.70;;;;;;;;;;4975691;28;20215;-76
2023/04/04 16:34:13;;;;;;;8.00;3.43;;;;;;;;;;4975898;28;20187;-76
2023/04/04 16:37:17;;;;;;;3.90;2.90;;;;;;;;;;4975891;28;20531;-77
2023/04/04 16:40:21;;;;;;;5.67;2.47;;;;;;;;;;4974743;28;20218;-77
2023/04/04 16:43:26;;;;;;;6.63;3.60;;;;;;;;;;4986201;28;20183;-76
2023/04/04 16:46:30;;;;;;;8.77;2.83;;;;;;;;;;4985731;28;20183;-76
2023/04/04 16:49:34;;;;;;;4.23;2.53;;;;;;;;;;4985665;28;20183;-75
2023/04/04 16:52:38;;;;;;;2.90;2.27;;;;;;;;;;4975398;28;20226;-75
2023/04/04 16:55:42;;;;;;;5.03;2.53;;;;;;;;;;4985645;28;20210;-75
2023/04/04 16:58:46;;;;;;;2.83;2.30;;;;;;;;;;4975190;28;20183;-75
2023/04/04 17:01:51;;;;;;;3.87;2.27;;;;;;;;;;4985470;28;20233;-75
2023/04/04 17:04:55;;;;;;;3.27;2.33;;;;;;;;;;4963128;28;20202;-75
2023/04/04 17:07:59;;;;;;;3.80;2.57;;;;;;;;;;4974140;28;20202;-75
2023/04/04 17:11:03;;;;;;;5.23;3.07;;;;;;;;;;4985322;28;20218;-75
2023/04/04 17:14:08;;;;;;;4.00;2.67;;;;;;;;;;4985428;28;20191;-75
2023/04/04 17:17:12;;;;;;;6.10;2.70;;;;;;;;;;4974203;28;20187;-75
2023/04/04 17:20:17;;;;;;;5.83;3.60;;;;;;;;;;4985359;28;20541;-75
2023/04/04 17:23:21;;;;;;;5.60;3.40;;;;;;;;;;4985592;28;20187;-75
2023/04/04 17:26:26;;;;;;;4.53;2.60;;;;;;;;;;4974609;28;20541;-75
2023/04/04 17:29:30;;;;;;;3.83;2.50;;;;;;;;;;4975033;28;20183;-75
2023/04/04 17:32:34;;;;;;;5.43;2.40;;;;;;;;;;4973963;28;20218;-75
2023/04/04 17:35:38;;;;;;;7.10;2.80;;;;;;;;;;4974481;28;20214;-75
2023/04/04 17:38:42;;;;;;;3.50;2.00;;;;;;;;;;4974149;28;20195;-75
2023/04/04 17:41:47;;;;;;;4.75;2.70;;;;;;;;;;4973428;28;21295;-75
2023/04/04 17:44:51;;;;;;;5.40;2.90;;;;;;;;;;4985409;28;20179;-75
2023/04/04 17:47:55;;;;;;;3.80;2.60;;;;;;;;;;4975057;28;20187;-75
2023/04/04 17:50:59;;;;;;;2.87;1.80;;;;;;;;;;4974567;28;20222;-76
2023/04/04 17:54:04;;;;;;;2.20;2.00;;;;;;;;;;4974651;28;20628;-76
2023/04/04 17:57:08;;;;;;;3.43;2.00;;;;;;;;;;4984831;28;20195;-76
2023/04/04 18:00:13;;;;;;;3.53;2.40;;;;;;;;;;4984973;28;20191;-76
2023/04/04 18:03:21;;;;;;;3.40;1.93;;;;;;;;;;4974472;28;20174;-76
2023/04/04 18:06:26;;;;;;;3.50;2.43;;;;;;;;;;4974020;28;20605;-77
2023/04/04 18:09:30;;;;;;;3.90;2.20;;;;;;;;;;4984811;28;20187;-76
2023/04/04 18:12:35;;;;;;;3.43;2.20;;;;;;;;;;4973211;28;20215;-76
2023/04/04 18:15:39;;;;;;;3.60;2.50;;;;;;;;;;4984421;28;20186;-76
2023/04/04 18:18:43;;;;;;;3.63;2.27;;;;;;;;;;4984511;28;20183;-76
2023/04/04 18:21:49;;;;;;;3.73;2.27;;;;;;;;;;4973343;28;20653;-76
2023/04/04 18:24:53;;;;;;;2.33;2.00;;;;;;;;;;4975230;28;20547;-76
2023/04/04 18:27:58;;;;;;;3.33;2.30;;;;;;;;;;4978306;28;20662;-76
2023/04/04 18:31:02;;;;;;;3.60;2.33;;;;;;;;;;4977054;28;20626;-76
2023/04/04 18:34:06;;;;;;;4.23;2.27;;;;;;;;;;4988040;28;20598;-76